Time;durP1;ratioP1;P1;durP2;ratioP2;P2;SDS_P1;SDS_P2;PMS_P1;PMS_P2;Temp;Humidity;BMP_temperature;BMP_pressure;BME280_temperature;BME280_humidity;BME280_pressure;Samples;Min_cycle;Max_cycle;Signal;HPM_P1;HPM_P2
2021/01/04 00:02:08;;;;;;;51.25;29.85;;;;;;;;;;5050777;28;20360;-53
2021/01/04 00:04:49;;;;;;;54.80;33.85;;;;;;;;;;5051184;28;20021;-53
2021/01/04 00:07:34;;;;;;;54.47;35.47;;;;;;;;;;5051099;28;20465;-53
2021/01/04 00:10:19;;;;;;;36.95;28.40;;;;;;;;;;5049874;28;20451;-53
2021/01/04 00:12:45;;;;;;;49.22;35.65;;;;;;;;;;5051095;28;20025;-53
2021/01/04 00:15:11;;;;;;;50.88;28.13;;;;;;;;;;5051002;28;20056;-54
2021/01/04 00:18:00;;;;;;;44.80;28.17;;;;;;;;;;5051066;28;20025;-54
2021/01/04 00:20:29;;;;;;;58.38;30.98;;;;;;;;;;5053715;28;20050;-55
2021/01/04 00:23:08;;;;;;;51.13;30.85;;;;;;;;;;5054534;28;20032;-54
2021/01/04 00:25:37;;;;;;;48.40;25.35;;;;;;;;;;5054635;28;20087;-54
2021/01/04 00:28:05;;;;;;;47.08;28.13;;;;;;;;;;5054642;28;20385;-54
2021/01/04 00:30:33;;;;;;;35.47;25.20;;;;;;;;;;5054362;28;20100;-53
2021/01/04 00:33:04;;;;;;;37.17;25.23;;;;;;;;;;5054323;28;20052;-53
2021/01/04 00:35:30;;;;;;;36.40;24.35;;;;;;;;;;5054235;28;20110;-53
2021/01/04 00:38:15;;;;;;;44.17;27.95;;;;;;;;;;5054307;28;20486;-54
2021/01/04 00:40:42;;;;;;;53.35;30.52;;;;;;;;;;5054297;28;20036;-53
2021/01/04 00:43:13;;;;;;;39.80;26.80;;;;;;;;;;5052907;28;20405;-54
2021/01/04 00:45:47;;;;;;;57.15;32.47;;;;;;;;;;5054557;28;20025;-54
2021/01/04 00:48:27;;;;;;;49.30;29.60;;;;;;;;;;5073842;28;20025;-53
2021/01/04 00:51:02;;;;;;;37.35;28.67;;;;;;;;;;5065259;28;20414;-53
2021/01/04 00:53:28;;;;;;;50.92;30.55;;;;;;;;;;5055367;28;20082;-53
2021/01/04 00:56:08;;;;;;;36.00;26.55;;;;;;;;;;5053795;28;20083;-53
2021/01/04 00:58:37;;;;;;;52.47;31.48;;;;;;;;;;5053885;28;20103;-53
2021/01/04 01:01:07;;;;;;;50.17;31.55;;;;;;;;;;5053912;28;20032;-54
2021/01/04 01:03:52;;;;;;;54.53;31.63;;;;;;;;;;5054017;28;20478;-53
2021/01/04 01:06:25;;;;;;;46.45;28.55;;;;;;;;;;5053853;28;20025;-52
2021/01/04 01:08:54;;;;;;;56.85;32.03;;;;;;;;;;5053716;28;20021;-53
2021/01/04 01:11:43;;;;;;;65.10;31.00;;;;;;;;;;5053540;28;20017;-56
2021/01/04 01:14:38;;;;;;;46.78;27.95;;;;;;;;;;5016541;28;20037;-50
2021/01/04 01:17:23;;;;;;;68.28;36.05;;;;;;;;;;4982698;28;20062;-50
2021/01/04 01:19:51;;;;;;;48.28;32.83;;;;;;;;;;5053443;28;20131;-52
2021/01/04 01:22:29;;;;;;;60.95;40.00;;;;;;;;;;5053387;28;20102;-55
2021/01/04 01:24:56;;;;;;;55.85;35.20;;;;;;;;;;5053224;28;20029;-54
2021/01/04 01:27:43;;;;;;;67.65;35.78;;;;;;;;;;5053273;28;20040;-52
2021/01/04 01:30:22;;;;;;;44.45;31.75;;;;;;;;;;5053074;28;20024;-53
2021/01/04 01:33:00;;;;;;;52.80;31.90;;;;;;;;;;5053106;28;20032;-54
2021/01/04 01:35:32;;;;;;;75.93;39.95;;;;;;;;;;5052981;28;20474;-54
2021/01/04 01:38:17;;;;;;;79.65;40.17;;;;;;;;;;5053095;28;20021;-52
2021/01/04 01:41:02;;;;;;;61.13;43.00;;;;;;;;;;5053154;28;20097;-52
2021/01/04 01:43:37;;;;;;;70.53;41.40;;;;;;;;;;5052924;28;20078;-54
2021/01/04 01:46:09;;;;;;;60.15;39.03;;;;;;;;;;5056965;28;20021;-61
2021/01/04 01:48:41;;;;;;;87.13;44.75;;;;;;;;;;5071444;28;20028;-70
2021/01/04 01:51:34;;;;;;;66.72;40.75;;;;;;;;;;5072737;28;20027;-60
2021/01/04 01:54:03;;;;;;;62.20;42.15;;;;;;;;;;5070594;28;20178;-55
2021/01/04 01:56:44;;;;;;;74.18;43.10;;;;;;;;;;5072557;28;20040;-58
2021/01/04 01:59:29;;;;;;;73.28;45.45;;;;;;;;;;5072535;28;20115;-58
2021/01/04 02:02:01;;;;;;;66.45;38.30;;;;;;;;;;5072446;28;20492;-53
2021/01/04 02:04:30;;;;;;;73.90;44.10;;;;;;;;;;5072533;28;20028;-53
2021/01/04 02:07:09;;;;;;;63.72;39.50;;;;;;;;;;5072361;28;20029;-53
2021/01/04 02:09:40;;;;;;;64.85;36.33;;;;;;;;;;5072440;28;20112;-52
2021/01/04 02:12:11;;;;;;;69.13;42.45;;;;;;;;;;5072441;28;20024;-53
2021/01/04 02:14:40;;;;;;;70.85;40.33;;;;;;;;;;5071953;28;20104;-52
2021/01/04 02:17:21;;;;;;;80.85;47.70;;;;;;;;;;5072281;28;20543;-53
2021/01/04 02:19:47;;;;;;;74.47;41.00;;;;;;;;;;5072623;28;20028;-52
2021/01/04 02:22:25;;;;;;;89.15;43.65;;;;;;;;;;5072384;28;20017;-53
2021/01/04 02:24:51;;;;;;;68.57;42.63;;;;;;;;;;5072300;28;20096;-53
2021/01/04 02:27:21;;;;;;;70.72;42.95;;;;;;;;;;5072123;28;20036;-57
2021/01/04 02:29:47;;;;;;;82.97;44.57;;;;;;;;;;5072124;28;20029;-59
2021/01/04 02:32:14;;;;;;;87.60;44.75;;;;;;;;;;5072121;28;20025;-57
2021/01/04 02:34:42;;;;;;;73.10;39.42;;;;;;;;;;5072022;28;20028;-53
2021/01/04 02:37:09;;;;;;;73.15;48.63;;;;;;;;;;5071969;28;20073;-55
2021/01/04 02:39:38;;;;;;;88.32;55.35;;;;;;;;;;5071987;28;20021;-55
2021/01/04 02:42:10;;;;;;;87.20;47.45;;;;;;;;;;5071108;28;20016;-56
2021/01/04 02:44:36;;;;;;;81.05;50.97;;;;;;;;;;5071662;28;20047;-52
2021/01/04 02:47:21;;;;;;;92.38;49.50;;;;;;;;;;5071438;28;20025;-53
2021/01/04 02:50:06;;;;;;;116.63;47.17;;;;;;;;;;5071847;28;20032;-53
2021/01/04 02:52:44;;;;;;;103.03;49.58;;;;;;;;;;5071692;28;20028;-52
2021/01/04 02:55:18;;;;;;;104.90;62.30;;;;;;;;;;5071761;28;20025;-53
2021/01/04 02:57:54;;;;;;;97.57;55.55;;;;;;;;;;5071761;28;20490;-52
2021/01/04 03:00:22;;;;;;;92.45;57.55;;;;;;;;;;5071802;28;20108;-59
2021/01/04 03:02:51;;;;;;;113.75;53.92;;;;;;;;;;5071521;28;20043;-53
2021/01/04 03:05:21;;;;;;;121.65;68.50;;;;;;;;;;5071793;28;20032;-58
2021/01/04 03:07:52;;;;;;;109.90;65.32;;;;;;;;;;5071697;28;20409;-60
2021/01/04 03:10:18;;;;;;;;;;;;;;;;;;5072034;28;20378;-65
2021/01/04 03:12:51;;;;;;;92.18;48.63;;;;;;;;;;5071479;28;19904;-58
2021/01/04 03:15:29;;;;;;;158.15;70.38;;;;;;;;;;5071449;28;20098;-52
2021/01/04 03:18:16;;;;;;;143.13;75.28;;;;;;;;;;5071648;28;20505;-53
2021/01/04 03:20:42;;;;;;;115.22;67.32;;;;;;;;;;5071846;28;20786;-52
2021/01/04 03:23:08;;;;;;;154.27;75.65;;;;;;;;;;5071790;28;20028;-54
2021/01/04 03:25:37;;;;;;;149.43;76.32;;;;;;;;;;5071372;28;20025;-55
2021/01/04 03:28:04;;;;;;;136.13;79.47;;;;;;;;;;5071199;28;20036;-54
2021/01/04 03:30:30;;;;;;;137.65;82.60;;;;;;;;;;5071633;28;20028;-54
2021/01/04 03:32:58;;;;;;;140.73;98.35;;;;;;;;;;5071771;28;20031;-54
2021/01/04 03:35:24;;;;;;;177.60;102.28;;;;;;;;;;5071448;28;20903;-54
2021/01/04 03:37:50;;;;;;;154.57;92.35;;;;;;;;;;5071584;28;20024;-53
2021/01/04 03:40:17;;;;;;;198.38;113.40;;;;;;;;;;5071594;28;20042;-53
2021/01/04 03:42:43;;;;;;;176.45;110.80;;;;;;;;;;5071331;28;20021;-53
2021/01/04 03:45:10;;;;;;;137.90;96.03;;;;;;;;;;5071410;28;20020;-53
2021/01/04 03:47:36;;;;;;;183.98;116.25;;;;;;;;;;5071220;28;20025;-53
2021/01/04 03:50:09;;;;;;;197.95;122.20;;;;;;;;;;5071304;28;20016;-52
2021/01/04 03:52:35;;;;;;;196.30;111.07;;;;;;;;;;5071369;28;20471;-52
2021/01/04 03:55:02;;;;;;;223.63;132.57;;;;;;;;;;5073478;28;20029;-53
2021/01/04 03:57:28;;;;;;;169.75;99.20;;;;;;;;;;5067906;28;20744;-53
2021/01/04 03:59:54;;;;;;;152.80;97.38;;;;;;;;;;5069904;28;20071;-56
2021/01/04 04:02:21;;;;;;;143.93;92.82;;;;;;;;;;5063806;28;20024;-52
2021/01/04 04:04:48;;;;;;;152.27;100.13;;;;;;;;;;5072787;28;20852;-55
2021/01/04 04:07:14;;;;;;;182.55;113.13;;;;;;;;;;5072815;28;20729;-54
2021/01/04 04:09:40;;;;;;;181.35;105.95;;;;;;;;;;5074351;28;20071;-55
2021/01/04 04:12:07;;;;;;;209.10;112.07;;;;;;;;;;5074643;28;20051;-54
2021/01/04 04:14:33;;;;;;;168.32;99.10;;;;;;;;;;5074659;28;20032;-54
2021/01/04 04:16:59;;;;;;;141.60;103.03;;;;;;;;;;5074632;28;20497;-54
2021/01/04 04:19:26;;;;;;;141.95;80.40;;;;;;;;;;5074548;28;20504;-54
2021/01/04 04:21:53;;;;;;;182.93;110.40;;;;;;;;;;5074576;28;20021;-54
2021/01/04 04:24:19;;;;;;;144.20;89.82;;;;;;;;;;5074421;28;20020;-55
2021/01/04 04:26:45;;;;;;;145.35;86.80;;;;;;;;;;5074478;28;20435;-55
2021/01/04 04:29:12;;;;;;;136.43;91.40;;;;;;;;;;5074205;28;20040;-55
2021/01/04 04:31:45;;;;;;;148.65;86.72;;;;;;;;;;5074265;28;20024;-55
2021/01/04 04:34:11;;;;;;;160.70;102.95;;;;;;;;;;5074383;28;20024;-56
2021/01/04 04:36:40;;;;;;;135.30;81.40;;;;;;;;;;5074251;28;20035;-56
2021/01/04 04:39:06;;;;;;;130.95;88.25;;;;;;;;;;5074405;28;20489;-56
2021/01/04 04:41:37;;;;;;;180.45;110.43;;;;;;;;;;5074318;28;20032;-56
2021/01/04 04:44:18;;;;;;;171.18;98.53;;;;;;;;;;5074127;28;20024;-55
2021/01/04 04:46:53;;;;;;;111.45;75.65;;;;;;;;;;5074125;28;20029;-56
2021/01/04 04:49:34;;;;;;;127.22;86.95;;;;;;;;;;5073983;28;20040;-56
2021/01/04 04:52:13;;;;;;;156.48;94.15;;;;;;;;;;5073852;28;20024;-56
2021/01/04 04:54:40;;;;;;;159.95;86.63;;;;;;;;;;5073952;28;20052;-56
2021/01/04 04:57:09;;;;;;;120.15;83.82;;;;;;;;;;5073802;28;20033;-54
2021/01/04 04:59:42;;;;;;;151.95;91.78;;;;;;;;;;5073686;28;20044;-54
2021/01/04 05:02:12;;;;;;;108.30;77.00;;;;;;;;;;5073759;28;20399;-53
2021/01/04 05:04:49;;;;;;;114.35;78.70;;;;;;;;;;5073497;28;20783;-54
2021/01/04 05:07:22;;;;;;;145.13;83.22;;;;;;;;;;5073742;28;20031;-53
2021/01/04 05:09:55;;;;;;;129.68;77.63;;;;;;;;;;5073698;28;20497;-52
2021/01/04 05:12:33;;;;;;;121.07;79.55;;;;;;;;;;5073852;28;20024;-52
2021/01/04 05:15:05;;;;;;;115.75;72.05;;;;;;;;;;5073653;28;20024;-52
2021/01/04 05:17:35;;;;;;;122.15;74.15;;;;;;;;;;5073461;28;20031;-52
2021/01/04 05:20:01;;;;;;;115.05;71.80;;;;;;;;;;5073464;28;20044;-52
2021/01/04 05:22:41;;;;;;;128.10;79.22;;;;;;;;;;5073235;28;20035;-52
2021/01/04 05:25:08;;;;;;;109.65;77.63;;;;;;;;;;5073360;28;20017;-52
2021/01/04 05:27:40;;;;;;;127.25;72.80;;;;;;;;;;5073226;28;20025;-52
2021/01/04 05:30:25;;;;;;;120.78;66.72;;;;;;;;;;5073141;28;20548;-53
2021/01/04 05:32:56;;;;;;;102.45;57.83;;;;;;;;;;5073165;28;20027;-52
2021/01/04 05:35:22;;;;;;;105.90;60.60;;;;;;;;;;5073074;28;20024;-52
2021/01/04 05:38:07;;;;;;;106.03;63.03;;;;;;;;;;5072960;28;20028;-52
2021/01/04 05:40:37;;;;;;;114.60;64.78;;;;;;;;;;5073064;28;20095;-52
2021/01/04 05:43:11;;;;;;;117.88;69.97;;;;;;;;;;5072904;28;20059;-52
2021/01/04 05:45:37;;;;;;;114.18;67.90;;;;;;;;;;5072732;28;20032;-52
2021/01/04 05:48:12;;;;;;;110.53;66.28;;;;;;;;;;5072977;28;20432;-52
2021/01/04 05:50:38;;;;;;;111.90;70.45;;;;;;;;;;5072831;28;20105;-52
2021/01/04 05:53:04;;;;;;;117.82;77.38;;;;;;;;;;5072830;28;20052;-52
2021/01/04 05:55:31;;;;;;;122.40;73.00;;;;;;;;;;5072795;28;20021;-52
2021/01/04 05:57:57;;;;;;;95.95;63.78;;;;;;;;;;5072709;28;20413;-53
2021/01/04 06:00:43;;;;;;;115.50;70.35;;;;;;;;;;5072758;28;20021;-53
2021/01/04 06:03:11;;;;;;;116.78;74.45;;;;;;;;;;5072634;28;20070;-52
2021/01/04 06:05:38;;;;;;;92.10;56.03;;;;;;;;;;5072677;28;20025;-53
2021/01/04 06:08:04;;;;;;;108.32;69.70;;;;;;;;;;5072448;28;20050;-53
2021/01/04 06:10:36;;;;;;;115.20;66.43;;;;;;;;;;5072501;28;20095;-53
2021/01/04 06:13:03;;;;;;;98.60;59.22;;;;;;;;;;5072455;28;20470;-52
2021/01/04 06:15:29;;;;;;;96.05;62.72;;;;;;;;;;5072402;28;21911;-52
2021/01/04 06:18:22;;;;;;;96.20;53.40;;;;;;;;;;5071666;28;20024;-52
2021/01/04 06:20:54;;;;;;;97.03;55.70;;;;;;;;;;5070479;28;20040;-52
2021/01/04 06:23:31;;;;;;;85.45;47.75;;;;;;;;;;5072193;28;20021;-52
2021/01/04 06:25:59;;;;;;;78.00;48.25;;;;;;;;;;5072227;28;20029;-53
2021/01/04 06:28:25;;;;;;;83.88;57.72;;;;;;;;;;5072148;28;20086;-52
2021/01/04 06:31:06;;;;;;;99.57;59.92;;;;;;;;;;5072231;28;20137;-52
2021/01/04 06:33:32;;;;;;;81.25;51.45;;;;;;;;;;5072397;28;20036;-52
2021/01/04 06:36:05;;;;;;;74.43;50.33;;;;;;;;;;5072086;28;20078;-53
2021/01/04 06:38:32;;;;;;;92.13;54.70;;;;;;;;;;5072022;28;20021;-53
2021/01/04 06:41:14;;;;;;;102.25;52.67;;;;;;;;;;5072140;28;20096;-52
2021/01/04 06:43:41;;;;;;;69.43;47.55;;;;;;;;;;5072010;28;20025;-52
2021/01/04 06:46:26;;;;;;;78.40;45.88;;;;;;;;;;5071979;28;20104;-53
2021/01/04 06:49:08;;;;;;;87.50;46.97;;;;;;;;;;5071934;28;20490;-53
2021/01/04 06:52:05;;;;;;;78.95;49.28;;;;;;;;;;5071831;28;20039;-53
2021/01/04 06:54:40;;;;;;;63.33;41.97;;;;;;;;;;5071960;28;20365;-53
2021/01/04 06:57:19;;;;;;;68.03;45.00;;;;;;;;;;5071736;28;20025;-52
2021/01/04 06:59:54;;;;;;;61.05;36.47;;;;;;;;;;5071621;28;20044;-53
2021/01/04 07:02:24;;;;;;;59.28;40.08;;;;;;;;;;5071755;28;20388;-52
2021/01/04 07:04:50;;;;;;;93.43;47.75;;;;;;;;;;5071566;28;20017;-52
2021/01/04 07:07:22;;;;;;;49.15;39.15;;;;;;;;;;5071692;28;20118;-54
2021/01/04 07:09:49;;;;;;;61.70;39.75;;;;;;;;;;5071678;28;20067;-53
2021/01/04 07:12:40;;;;;;;64.35;43.25;;;;;;;;;;5071641;28;20058;-53
2021/01/04 07:15:26;;;;;;;68.30;36.53;;;;;;;;;;5071715;28;20029;-53
2021/01/04 07:18:06;;;;;;;61.70;34.15;;;;;;;;;;5064711;28;20077;-53
2021/01/04 07:20:41;;;;;;;53.72;35.45;;;;;;;;;;5071582;28;20100;-53
2021/01/04 07:23:31;;;;;;;61.30;41.53;;;;;;;;;;5071615;28;20023;-53
2021/01/04 07:26:09;;;;;;;42.30;30.73;;;;;;;;;;5071473;28;20488;-53
2021/01/04 07:28:35;;;;;;;71.10;37.75;;;;;;;;;;5073190;28;20063;-53
2021/01/04 07:31:20;;;;;;;43.53;34.70;;;;;;;;;;5075447;28;20046;-52
2021/01/04 07:33:46;;;;;;;49.90;32.65;;;;;;;;;;5075424;28;20028;-53
2021/01/04 07:36:12;;;;;;;53.72;33.47;;;;;;;;;;5075527;28;20082;-52
2021/01/04 07:38:57;;;;;;;57.70;39.33;;;;;;;;;;5075645;28;20021;-52
2021/01/04 07:41:30;;;;;;;55.22;31.17;;;;;;;;;;5075308;28;20394;-52
2021/01/04 07:43:59;;;;;;;52.55;34.03;;;;;;;;;;5075356;28;20027;-52
2021/01/04 07:46:29;;;;;;;68.97;41.47;;;;;;;;;;5075301;28;20095;-52
2021/01/04 07:49:03;;;;;;;64.50;40.20;;;;;;;;;;5075226;28;20429;-53
2021/01/04 07:51:48;;;;;;;57.53;35.65;;;;;;;;;;5075028;28;20024;-53
2021/01/04 07:54:14;;;;;;;57.22;34.55;;;;;;;;;;5073867;28;20029;-53
2021/01/04 07:56:59;;;;;;;59.22;32.58;;;;;;;;;;5074969;28;20107;-53
2021/01/04 07:59:28;;;;;;;51.70;35.22;;;;;;;;;;5074820;28;20044;-52
2021/01/04 08:02:21;;;;;;;50.22;28.92;;;;;;;;;;5074959;28;20024;-52
2021/01/04 08:05:02;;;;;;;47.42;32.78;;;;;;;;;;5059036;28;20039;-52
2021/01/04 08:07:47;;;;;;;66.97;32.97;;;;;;;;;;5074929;28;20032;-52
2021/01/04 08:10:21;;;;;;;44.03;29.30;;;;;;;;;;5074663;28;20029;-52
2021/01/04 08:12:50;;;;;;;46.53;30.38;;;;;;;;;;5074747;28;20051;-52
2021/01/04 08:15:35;;;;;;;37.28;28.10;;;;;;;;;;5074579;28;20033;-53
2021/01/04 08:18:04;;;;;;;57.78;28.17;;;;;;;;;;5074513;28;20407;-53
2021/01/04 08:20:30;;;;;;;52.20;28.70;;;;;;;;;;5074423;28;20024;-53
2021/01/04 08:22:59;;;;;;;57.65;30.60;;;;;;;;;;5074619;28;20024;-53
2021/01/04 08:25:38;;;;;;;56.28;33.83;;;;;;;;;;5074469;28;20030;-53
2021/01/04 08:28:04;;;;;;;49.97;29.80;;;;;;;;;;5074496;28;20100;-53
2021/01/04 08:30:45;;;;;;;58.97;31.27;;;;;;;;;;5074375;28;20040;-53
2021/01/04 08:33:11;;;;;;;;;;;;;;;;;;5074717;28;20052;-53
2021/01/04 08:35:39;;;;;;;42.45;27.10;;;;;;;;;;5074314;28;19962;-54
2021/01/04 08:38:17;;;;;;;49.75;28.73;;;;;;;;;;5074993;28;20020;-53
2021/01/04 08:40:55;;;;;;;38.03;25.05;;;;;;;;;;5074926;28;20029;-53
2021/01/04 08:43:31;;;;;;;47.08;30.15;;;;;;;;;;5075876;28;20036;-53
2021/01/04 08:45:57;;;;;;;43.20;25.92;;;;;;;;;;5076658;28;20377;-53
2021/01/04 08:48:35;;;;;;;38.90;30.77;;;;;;;;;;5075804;28;20021;-53
2021/01/04 08:51:06;;;;;;;47.80;31.05;;;;;;;;;;5075113;28;20028;-53
2021/01/04 08:53:33;;;;;;;51.13;28.40;;;;;;;;;;5075111;28;20029;-53
2021/01/04 08:56:14;;;;;;;30.05;21.67;;;;;;;;;;5075384;28;20082;-53
2021/01/04 08:58:43;;;;;;;43.60;26.88;;;;;;;;;;5075277;28;20571;-53
2021/01/04 09:01:12;;;;;;;47.33;24.30;;;;;;;;;;5074596;28;20047;-53
2021/01/04 09:03:39;;;;;;;66.38;28.48;;;;;;;;;;5074668;28;20017;-53
2021/01/04 09:06:24;;;;;;;39.45;23.25;;;;;;;;;;5075217;28;20054;-54
2021/01/04 09:08:53;;;;;;;43.42;28.15;;;;;;;;;;5074360;28;20025;-54
2021/01/04 09:11:19;;;;;;;40.88;28.48;;;;;;;;;;5074537;28;20025;-54
2021/01/04 09:13:47;;;;;;;48.50;20.10;;;;;;;;;;5075410;28;20020;-54
2021/01/04 09:16:16;;;;;;;40.53;25.92;;;;;;;;;;5075130;28;20398;-53
2021/01/04 09:18:48;;;;;;;29.42;23.63;;;;;;;;;;5075769;28;20048;-53
2021/01/04 09:21:35;;;;;;;34.42;21.30;;;;;;;;;;5075069;28;20024;-53
2021/01/04 09:24:24;;;;;;;34.17;19.90;;;;;;;;;;5075388;28;20017;-53
2021/01/04 09:26:56;;;;;;;33.83;20.15;;;;;;;;;;5069394;28;20112;-53
2021/01/04 09:29:46;;;;;;;25.85;16.92;;;;;;;;;;5075554;28;20481;-53
2021/01/04 09:32:14;;;;;;;34.92;19.25;;;;;;;;;;5074954;28;20078;-53
2021/01/04 09:34:41;;;;;;;32.47;18.63;;;;;;;;;;5074832;28;20025;-53
2021/01/04 09:37:34;;;;;;;34.10;19.08;;;;;;;;;;5074710;28;20115;-53
2021/01/04 09:40:02;;;;;;;31.20;18.20;;;;;;;;;;5073655;28;20064;-53
2021/01/04 09:42:29;;;;;;;33.65;20.20;;;;;;;;;;5073090;28;20028;-53
2021/01/04 09:44:55;;;;;;;44.00;22.55;;;;;;;;;;5074958;28;20024;-53
2021/01/04 09:47:37;;;;;;;41.22;21.25;;;;;;;;;;5074561;28;20504;-53
2021/01/04 09:50:07;;;;;;;34.00;21.00;;;;;;;;;;5074837;28;20031;-53
2021/01/04 09:52:56;;;;;;;32.03;19.02;;;;;;;;;;5073030;28;20024;-53
2021/01/04 09:55:28;;;;;;;32.47;19.35;;;;;;;;;;5068964;28;20410;-52
2021/01/04 09:57:58;;;;;;;26.35;17.13;;;;;;;;;;5074512;28;20359;-54
2021/01/04 10:00:26;;;;;;;29.83;19.97;;;;;;;;;;5074768;28;20020;-54
2021/01/04 10:02:59;;;;;;;37.20;18.70;;;;;;;;;;5073162;28;20386;-54
2021/01/04 10:05:32;;;;;;;29.38;17.05;;;;;;;;;;5072170;28;20024;-54
2021/01/04 10:07:58;;;;;;;23.77;18.50;;;;;;;;;;5073259;28;20020;-53
2021/01/04 10:10:25;;;;;;;25.10;20.23;;;;;;;;;;5073216;28;20029;-53
2021/01/04 10:12:51;;;;;;;29.83;20.83;;;;;;;;;;5073541;28;20024;-54
2021/01/04 10:15:17;;;;;;;38.17;24.27;;;;;;;;;;5073957;28;20024;-53
2021/01/04 10:17:45;;;;;;;43.35;23.48;;;;;;;;;;5073588;28;20406;-54
2021/01/04 10:20:17;;;;;;;35.38;20.15;;;;;;;;;;5074547;28;20476;-53
2021/01/04 10:22:46;;;;;;;31.85;17.70;;;;;;;;;;5073957;28;20023;-53
2021/01/04 10:25:17;;;;;;;30.05;16.42;;;;;;;;;;5073727;28;20100;-52
2021/01/04 10:27:44;;;;;;;28.85;17.70;;;;;;;;;;5074170;28;20020;-53
2021/01/04 10:30:13;;;;;;;30.83;17.95;;;;;;;;;;5073713;28;20036;-53
2021/01/04 10:32:41;;;;;;;21.40;14.82;;;;;;;;;;5073768;28;20044;-53
2021/01/04 10:35:27;;;;;;;28.95;17.08;;;;;;;;;;5073579;28;20031;-53
2021/01/04 10:38:16;;;;;;;14.68;11.50;;;;;;;;;;5071766;28;20444;-53
2021/01/04 10:40:44;;;;;;;33.30;15.98;;;;;;;;;;5071801;28;20016;-53
2021/01/04 10:45:53;;;;;;;28.20;13.18;;;;;;;;;;5108465;22;20061;-59
2021/01/04 10:48:21;;;;;;;21.83;14.25;;;;;;;;;;5031832;28;20036;-59
2021/01/04 10:50:56;;;;;;;25.23;14.15;;;;;;;;;;5184873;22;20569;-53
2021/01/04 10:53:36;;;;;;;25.67;16.65;;;;;;;;;;5031841;28;20045;-54
2021/01/04 10:56:15;;;;;;;15.47;10.70;;;;;;;;;;5031759;28;20044;-54
2021/01/04 10:58:47;;;;;;;33.15;17.55;;;;;;;;;;5031771;28;20018;-53
2021/01/04 11:01:21;;;;;;;29.02;14.68;;;;;;;;;;5031737;28;20021;-51
2021/01/04 11:03:55;;;;;;;25.30;10.40;;;;;;;;;;5031575;28;20096;-53
2021/01/04 11:06:32;;;;;;;17.48;14.90;;;;;;;;;;5031581;28;20095;-54
2021/01/04 11:08:59;;;;;;;17.38;12.80;;;;;;;;;;5031665;28;20075;-53
2021/01/04 11:11:28;;;;;;;30.02;15.02;;;;;;;;;;5031309;28;20067;-54
2021/01/04 11:13:54;;;;;;;15.27;12.65;;;;;;;;;;5031364;28;20021;-54
2021/01/04 11:16:21;;;;;;;25.77;14.05;;;;;;;;;;5029498;28;20033;-66
2021/01/04 11:18:57;;;;;;;24.17;16.00;;;;;;;;;;5032851;28;20501;-57
2021/01/04 11:21:44;;;;;;;27.05;18.65;;;;;;;;;;5029782;28;20541;-52
2021/01/04 11:24:11;;;;;;;25.52;12.40;;;;;;;;;;5030899;28;20120;-55
2021/01/04 11:26:38;;;;;;;22.10;13.35;;;;;;;;;;5031660;28;20042;-55
2021/01/04 11:29:04;;;;;;;20.67;12.48;;;;;;;;;;5031579;28;20037;-53
2021/01/04 11:31:31;;;;;;;22.10;11.80;;;;;;;;;;5032011;28;20026;-59
2021/01/04 11:33:57;;;;;;;15.88;11.10;;;;;;;;;;5031591;28;20036;-64
2021/01/04 11:36:23;;;;;;;16.35;11.27;;;;;;;;;;5031163;28;20080;-68
2021/01/04 11:38:50;;;;;;;17.13;11.32;;;;;;;;;;5031275;28;20026;-61
2021/01/04 11:41:16;;;;;;;29.13;15.57;;;;;;;;;;5030095;28;20045;-58
2021/01/04 11:43:42;;;;;;;20.35;14.63;;;;;;;;;;5031291;28;20025;-55
2021/01/04 11:46:10;;;;;;;25.55;11.48;;;;;;;;;;5031091;28;20025;-52
2021/01/04 11:48:36;;;;;;;24.13;12.45;;;;;;;;;;5031205;28;20049;-52
2021/01/04 11:51:02;;;;;;;17.40;12.30;;;;;;;;;;5031084;28;20045;-52
2021/01/04 11:53:32;;;;;;;18.30;9.82;;;;;;;;;;5031338;28;20109;-52
2021/01/04 11:55:58;;;;;;;21.05;9.07;;;;;;;;;;5031277;28;20060;-51
2021/01/04 11:58:24;;;;;;;17.45;10.30;;;;;;;;;;5031180;28;20121;-52
2021/01/04 12:00:52;;;;;;;30.02;11.85;;;;;;;;;;5031235;28;20021;-52
2021/01/04 12:03:19;;;;;;;17.85;9.75;;;;;;;;;;5030013;28;20056;-52
2021/01/04 12:05:45;;;;;;;15.38;12.13;;;;;;;;;;5031282;28;20091;-51
2021/01/04 12:08:11;;;;;;;15.30;8.13;;;;;;;;;;5031259;28;20036;-53
2021/01/04 12:10:38;;;;;;;17.45;12.52;;;;;;;;;;5031131;28;20072;-53
2021/01/04 12:13:06;;;;;;;21.38;9.90;;;;;;;;;;5045425;28;20021;-54
2021/01/04 12:15:32;;;;;;;14.98;11.90;;;;;;;;;;5052399;28;20021;-53
2021/01/04 12:17:59;;;;;;;15.52;10.27;;;;;;;;;;5054749;28;20508;-54
2021/01/04 12:20:25;;;;;;;18.40;10.10;;;;;;;;;;5053445;28;20478;-54
2021/01/04 12:22:51;;;;;;;14.48;9.68;;;;;;;;;;5054520;28;20025;-53
2021/01/04 12:25:17;;;;;;;20.08;9.05;;;;;;;;;;5054408;28;20029;-54
2021/01/04 12:27:44;;;;;;;20.10;9.48;;;;;;;;;;5036832;28;20025;-55
2021/01/04 12:30:11;;;;;;;22.70;10.25;;;;;;;;;;5032906;28;20033;-55
2021/01/04 12:32:41;;;;;;;17.25;10.57;;;;;;;;;;5034007;28;20045;-53
2021/01/04 12:35:08;;;;;;;12.93;10.30;;;;;;;;;;5034385;28;20060;-63
2021/01/04 12:37:34;;;;;;;14.93;8.73;;;;;;;;;;5033028;28;20036;-58
2021/01/04 12:40:00;;;;;;;10.57;8.98;;;;;;;;;;5033853;28;20032;-55
2021/01/04 12:42:26;;;;;;;14.02;11.02;;;;;;;;;;5034263;28;20032;-55
2021/01/04 12:44:53;;;;;;;19.60;12.57;;;;;;;;;;5033546;28;20546;-55
2021/01/04 12:47:19;;;;;;;14.13;7.95;;;;;;;;;;5033794;28;20026;-55
2021/01/04 12:49:45;;;;;;;11.70;9.18;;;;;;;;;;5032903;28;20069;-55
2021/01/04 12:52:11;;;;;;;10.40;9.05;;;;;;;;;;5033919;28;20053;-54
2021/01/04 12:54:38;;;;;;;12.82;10.95;;;;;;;;;;5033717;28;20033;-53
2021/01/04 12:57:09;;;;;;;16.85;9.15;;;;;;;;;;5033601;28;20029;-54
2021/01/04 12:59:38;;;;;;;9.35;7.25;;;;;;;;;;5033718;28;20029;-53
2021/01/04 13:02:05;;;;;;;13.37;7.93;;;;;;;;;;5033924;28;20112;-52
2021/01/04 13:04:31;;;;;;;16.50;8.35;;;;;;;;;;5033796;28;20250;-52
2021/01/04 13:06:57;;;;;;;13.52;8.32;;;;;;;;;;5033590;28;20056;-52
2021/01/04 13:09:24;;;;;;;17.27;9.57;;;;;;;;;;5033338;28;20030;-51
2021/01/04 13:11:51;;;;;;;18.15;10.82;;;;;;;;;;5032726;28;20017;-52
2021/01/04 13:14:18;;;;;;;18.35;11.52;;;;;;;;;;5033639;28;20017;-52
2021/01/04 13:16:45;;;;;;;29.40;14.82;;;;;;;;;;5209617;22;20045;-56
2021/01/04 13:19:12;;;;;;;18.48;15.00;;;;;;;;;;5065945;28;20427;-55
2021/01/04 13:21:38;;;;;;;19.77;13.30;;;;;;;;;;5053857;28;20351;-56
2021/01/04 13:24:06;;;;;;;15.48;10.18;;;;;;;;;;5053252;28;20024;-57
2021/01/04 13:26:42;;;;;;;31.27;12.27;;;;;;;;;;5053125;28;20017;-52
2021/01/04 13:29:09;;;;;;;19.02;10.52;;;;;;;;;;5052056;28;20045;-52
2021/01/04 13:31:36;;;;;;;29.55;10.77;;;;;;;;;;5053271;28;20013;-52
2021/01/04 13:34:03;;;;;;;38.47;19.77;;;;;;;;;;5053272;28;20021;-60
2021/01/04 13:36:29;;;;;;;19.50;12.68;;;;;;;;;;5054459;28;20029;-52
2021/01/04 13:38:55;;;;;;;26.33;13.73;;;;;;;;;;5071412;28;20048;-52
2021/01/04 13:41:22;;;;;;;19.63;11.57;;;;;;;;;;5071773;28;20023;-50
2021/01/04 13:43:48;;;;;;;22.10;11.40;;;;;;;;;;5067199;28;20021;-51
2021/01/04 13:46:22;;;;;;;19.05;11.90;;;;;;;;;;5071151;28;20095;-50
2021/01/04 13:48:48;;;;;;;22.83;12.27;;;;;;;;;;5067607;28;20025;-57
2021/01/04 13:51:15;;;;;;;28.20;14.55;;;;;;;;;;5070234;28;20021;-52
2021/01/04 13:53:41;;;;;;;20.33;10.23;;;;;;;;;;5071714;28;20499;-58
2021/01/04 13:56:08;;;;;;;24.60;13.63;;;;;;;;;;5071558;28;20054;-58
2021/01/04 13:58:35;;;;;;;20.65;11.95;;;;;;;;;;5071304;28;20028;-61
2021/01/04 14:01:01;;;;;;;20.63;12.85;;;;;;;;;;5068681;28;20028;-68
2021/01/04 14:03:28;;;;;;;23.20;12.20;;;;;;;;;;5074438;28;20083;-55
2021/01/04 14:05:57;;;;;;;32.20;16.15;;;;;;;;;;5071135;28;20099;-54
2021/01/04 14:08:23;;;;;;;23.05;12.10;;;;;;;;;;5071393;28;20027;-55
2021/01/04 14:10:50;;;;;;;18.30;11.45;;;;;;;;;;5071188;28;20113;-53
2021/01/04 14:13:16;;;;;;;24.10;14.52;;;;;;;;;;5071169;28;20086;-53
2021/01/04 14:15:43;;;;;;;19.73;15.10;;;;;;;;;;5072998;28;20465;-53
2021/01/04 14:18:09;;;;;;;24.70;12.77;;;;;;;;;;5070945;28;20031;-53
2021/01/04 14:20:35;;;;;;;22.25;14.13;;;;;;;;;;5070816;28;20024;-51
2021/01/04 14:23:01;;;;;;;38.03;17.45;;;;;;;;;;5070869;28;20027;-57
2021/01/04 14:25:28;;;;;;;36.42;18.48;;;;;;;;;;5071210;28;20479;-52
2021/01/04 14:27:54;;;;;;;24.27;15.70;;;;;;;;;;5071133;28;20027;-52
2021/01/04 14:30:20;;;;;;;41.92;18.63;;;;;;;;;;5074044;28;20035;-53
2021/01/04 14:32:47;;;;;;;23.77;16.35;;;;;;;;;;5074038;28;20035;-53
2021/01/04 14:35:14;;;;;;;25.95;14.98;;;;;;;;;;5073696;28;20048;-53
2021/01/04 14:37:40;;;;;;;42.33;18.60;;;;;;;;;;5072960;28;20016;-55
2021/01/04 14:40:07;;;;;;;21.05;16.92;;;;;;;;;;5073998;28;20199;-58
2021/01/04 14:42:33;;;;;;;37.08;20.75;;;;;;;;;;5074003;28;20027;-53
2021/01/04 14:44:59;;;;;;;20.33;15.05;;;;;;;;;;5073470;28;20031;-57